sensor_id;sensor_type;location;lat;lon;timestamp;P1;durP1;ratioP1;P2;durP2;ratioP2
70549;SDS011;58101;48.658;2.328;2023-06-22T00:02:15;5.95;;;1.95;;
70549;SDS011;58101;48.658;2.328;2023-06-22T00:04:40;5.93;;;2.00;;
70549;SDS011;58101;48.658;2.328;2023-06-22T00:07:06;5.82;;;1.73;;
70549;SDS011;58101;48.658;2.328;2023-06-22T00:09:32;6.35;;;2.08;;
70549;SDS011;58101;48.658;2.328;2023-06-22T00:14:23;8.27;;;2.00;;
70549;SDS011;58101;48.658;2.328;2023-06-22T00:16:49;6.68;;;2.10;;
70549;SDS011;58101;48.658;2.328;2023-06-22T00:19:19;5.80;;;1.90;;
70549;SDS011;58101;48.658;2.328;2023-06-22T00:21:46;5.88;;;1.90;;
70549;SDS011;58101;48.658;2.328;2023-06-22T00:24:12;6.88;;;1.92;;
70549;SDS011;58101;48.658;2.328;2023-06-22T00:29:04;6.13;;;2.00;;
70549;SDS011;58101;48.658;2.328;2023-06-22T00:31:29;8.45;;;2.33;;
70549;SDS011;58101;48.658;2.328;2023-06-22T00:33:55;6.53;;;2.00;;
70549;SDS011;58101;48.658;2.328;2023-06-22T00:36:20;6.45;;;2.10;;
70549;SDS011;58101;48.658;2.328;2023-06-22T00:38:46;7.35;;;2.00;;
70549;SDS011;58101;48.658;2.328;2023-06-22T00:41:12;7.07;;;2.10;;
70549;SDS011;58101;48.658;2.328;2023-06-22T00:43:37;9.05;;;2.78;;
70549;SDS011;58101;48.658;2.328;2023-06-22T00:46:03;6.97;;;1.77;;
70549;SDS011;58101;48.658;2.328;2023-06-22T00:48:28;6.50;;;2.00;;
70549;SDS011;58101;48.658;2.328;2023-06-22T00:50:54;7.55;;;2.00;;
70549;SDS011;58101;48.658;2.328;2023-06-22T00:53:21;9.43;;;2.05;;
70549;SDS011;58101;48.658;2.328;2023-06-22T00:55:46;7.20;;;2.00;;
70549;SDS011;58101;48.658;2.328;2023-06-22T00:58:16;5.80;;;2.03;;
70549;SDS011;58101;48.658;2.328;2023-06-22T01:00:46;8.95;;;2.08;;
70549;SDS011;58101;48.658;2.328;2023-06-22T01:03:13;9.13;;;2.25;;
70549;SDS011;58101;48.658;2.328;2023-06-22T01:05:39;6.15;;;2.03;;
70549;SDS011;58101;48.658;2.328;2023-06-22T01:10:41;7.20;;;2.10;;
70549;SDS011;58101;48.658;2.328;2023-06-22T01:13:58;7.07;;;1.90;;
70549;SDS011;58101;48.658;2.328;2023-06-22T01:16:08;5.70;;;2.00;;
70549;SDS011;58101;48.658;2.328;2023-06-22T01:18:39;8.10;;;2.00;;
70549;SDS011;58101;48.658;2.328;2023-06-22T01:21:07;6.28;;;1.90;;
70549;SDS011;58101;48.658;2.328;2023-06-22T01:23:58;6.25;;;1.90;;
70549;SDS011;58101;48.658;2.328;2023-06-22T01:28:56;6.00;;;1.90;;
70549;SDS011;58101;48.658;2.328;2023-06-22T01:31:24;8.52;;;2.38;;
70549;SDS011;58101;48.658;2.328;2023-06-22T01:34:09;6.65;;;2.10;;
70549;SDS011;58101;48.658;2.328;2023-06-22T01:36:37;9.82;;;2.30;;
70549;SDS011;58101;48.658;2.328;2023-06-22T01:39:04;6.43;;;1.92;;
70549;SDS011;58101;48.658;2.328;2023-06-22T01:41:33;5.90;;;1.90;;
70549;SDS011;58101;48.658;2.328;2023-06-22T01:44:00;7.20;;;2.20;;
70549;SDS011;58101;48.658;2.328;2023-06-22T01:46:28;7.32;;;2.20;;
70549;SDS011;58101;48.658;2.328;2023-06-22T01:48:57;6.82;;;1.90;;
70549;SDS011;58101;48.658;2.328;2023-06-22T01:51:23;7.65;;;2.17;;
70549;SDS011;58101;48.658;2.328;2023-06-22T01:53:49;6.25;;;2.13;;
70549;SDS011;58101;48.658;2.328;2023-06-22T01:56:18;8.82;;;2.10;;
70549;SDS011;58101;48.658;2.328;2023-06-22T01:58:50;6.43;;;1.92;;
70549;SDS011;58101;48.658;2.328;2023-06-22T02:01:41;5.68;;;2.00;;
70549;SDS011;58101;48.658;2.328;2023-06-22T02:04:12;7.80;;;2.20;;
70549;SDS011;58101;48.658;2.328;2023-06-22T02:06:42;5.82;;;1.90;;
70549;SDS011;58101;48.658;2.328;2023-06-22T02:09:11;7.18;;;2.22;;
70549;SDS011;58101;48.658;2.328;2023-06-22T02:11:41;5.50;;;2.00;;
70549;SDS011;58101;48.658;2.328;2023-06-22T02:14:09;6.43;;;2.22;;
70549;SDS011;58101;48.658;2.328;2023-06-22T02:16:35;6.50;;;2.15;;
70549;SDS011;58101;48.658;2.328;2023-06-22T02:19:02;6.00;;;2.20;;
70549;SDS011;58101;48.658;2.328;2023-06-22T02:21:28;6.97;;;2.00;;
70549;SDS011;58101;48.658;2.328;2023-06-22T02:23:55;7.50;;;2.15;;
70549;SDS011;58101;48.658;2.328;2023-06-22T02:26:21;6.32;;;2.05;;
70549;SDS011;58101;48.658;2.328;2023-06-22T02:28:48;7.45;;;2.10;;
70549;SDS011;58101;48.658;2.328;2023-06-22T02:31:14;6.25;;;2.20;;
70549;SDS011;58101;48.658;2.328;2023-06-22T02:33:40;6.40;;;2.20;;
70549;SDS011;58101;48.658;2.328;2023-06-22T02:36:05;7.85;;;2.20;;
70549;SDS011;58101;48.658;2.328;2023-06-22T02:38:34;7.20;;;2.03;;
70549;SDS011;58101;48.658;2.328;2023-06-22T02:41:01;6.97;;;2.38;;
70549;SDS011;58101;48.658;2.328;2023-06-22T02:43:27;6.22;;;2.17;;
70549;SDS011;58101;48.658;2.328;2023-06-22T02:45:53;9.27;;;2.63;;
70549;SDS011;58101;48.658;2.328;2023-06-22T02:48:19;8.07;;;2.60;;
70549;SDS011;58101;48.658;2.328;2023-06-22T02:50:47;6.35;;;2.05;;
70549;SDS011;58101;48.658;2.328;2023-06-22T02:53:13;7.40;;;2.30;;
70549;SDS011;58101;48.658;2.328;2023-06-22T02:55:53;7.30;;;2.17;;
70549;SDS011;58101;48.658;2.328;2023-06-22T02:58:20;6.95;;;2.30;;
70549;SDS011;58101;48.658;2.328;2023-06-22T03:00:46;6.97;;;2.17;;
70549;SDS011;58101;48.658;2.328;2023-06-22T03:06:34;8.05;;;2.58;;
70549;SDS011;58101;48.658;2.328;2023-06-22T03:09:02;7.05;;;2.33;;
70549;SDS011;58101;48.658;2.328;2023-06-22T03:11:33;6.30;;;2.08;;
70549;SDS011;58101;48.658;2.328;2023-06-22T03:14:07;7.35;;;2.33;;
70549;SDS011;58101;48.658;2.328;2023-06-22T03:16:33;7.63;;;2.25;;
70549;SDS011;58101;48.658;2.328;2023-06-22T03:19:02;6.50;;;2.25;;
70549;SDS011;58101;48.658;2.328;2023-06-22T03:21:28;6.57;;;2.20;;
70549;SDS011;58101;48.658;2.328;2023-06-22T03:23:59;6.90;;;2.28;;
70549;SDS011;58101;48.658;2.328;2023-06-22T03:26:25;6.93;;;2.30;;
70549;SDS011;58101;48.658;2.328;2023-06-22T03:28:51;8.32;;;2.50;;
70549;SDS011;58101;48.658;2.328;2023-06-22T03:31:23;7.15;;;2.40;;
70549;SDS011;58101;48.658;2.328;2023-06-22T03:33:49;6.85;;;2.63;;
70549;SDS011;58101;48.658;2.328;2023-06-22T03:36:43;7.97;;;2.70;;
70549;SDS011;58101;48.658;2.328;2023-06-22T03:39:13;6.85;;;2.45;;
70549;SDS011;58101;48.658;2.328;2023-06-22T03:41:45;11.10;;;2.92;;
70549;SDS011;58101;48.658;2.328;2023-06-22T03:44:30;6.95;;;2.40;;
70549;SDS011;58101;48.658;2.328;2023-06-22T03:46:58;11.70;;;2.72;;
70549;SDS011;58101;48.658;2.328;2023-06-22T03:49:24;6.47;;;2.42;;
70549;SDS011;58101;48.658;2.328;2023-06-22T03:52:03;8.02;;;2.50;;
70549;SDS011;58101;48.658;2.328;2023-06-22T03:54:30;7.25;;;2.55;;
70549;SDS011;58101;48.658;2.328;2023-06-22T03:56:59;7.40;;;2.67;;
70549;SDS011;58101;48.658;2.328;2023-06-22T04:02:01;7.45;;;2.70;;
70549;SDS011;58101;48.658;2.328;2023-06-22T04:04:27;8.45;;;2.92;;
70549;SDS011;58101;48.658;2.328;2023-06-22T04:06:53;9.15;;;2.83;;
70549;SDS011;58101;48.658;2.328;2023-06-22T04:09:18;7.25;;;2.78;;
70549;SDS011;58101;48.658;2.328;2023-06-22T04:11:44;8.93;;;3.17;;
70549;SDS011;58101;48.658;2.328;2023-06-22T04:14:13;7.50;;;3.00;;
70549;SDS011;58101;48.658;2.328;2023-06-22T04:16:38;8.20;;;3.30;;
70549;SDS011;58101;48.658;2.328;2023-06-22T04:19:04;10.05;;;3.40;;
70549;SDS011;58101;48.658;2.328;2023-06-22T04:21:31;7.32;;;3.05;;
70549;SDS011;58101;48.658;2.328;2023-06-22T04:23:59;8.52;;;3.25;;
70549;SDS011;58101;48.658;2.328;2023-06-22T04:26:25;9.63;;;2.97;;
70549;SDS011;58101;48.658;2.328;2023-06-22T04:28:51;9.32;;;3.28;;
70549;SDS011;58101;48.658;2.328;2023-06-22T04:31:20;11.15;;;3.33;;
70549;SDS011;58101;48.658;2.328;2023-06-22T04:33:45;8.05;;;2.95;;
70549;SDS011;58101;48.658;2.328;2023-06-22T04:36:14;9.35;;;3.40;;
70549;SDS011;58101;48.658;2.328;2023-06-22T04:38:40;11.90;;;3.75;;
70549;SDS011;58101;48.658;2.328;2023-06-22T04:41:05;9.63;;;3.28;;
70549;SDS011;58101;48.658;2.328;2023-06-22T04:43:33;8.05;;;3.10;;
70549;SDS011;58101;48.658;2.328;2023-06-22T04:46:02;11.60;;;3.28;;
70549;SDS011;58101;48.658;2.328;2023-06-22T04:48:31;8.30;;;3.58;;
70549;SDS011;58101;48.658;2.328;2023-06-22T04:51:02;8.90;;;3.38;;
70549;SDS011;58101;48.658;2.328;2023-06-22T04:53:30;12.18;;;3.58;;
70549;SDS011;58101;48.658;2.328;2023-06-22T04:55:56;10.40;;;3.15;;
70549;SDS011;58101;48.658;2.328;2023-06-22T04:58:22;10.43;;;3.33;;
70549;SDS011;58101;48.658;2.328;2023-06-22T05:00:48;9.65;;;3.58;;
70549;SDS011;58101;48.658;2.328;2023-06-22T05:03:17;8.95;;;3.60;;
70549;SDS011;58101;48.658;2.328;2023-06-22T05:05:43;9.18;;;3.55;;
70549;SDS011;58101;48.658;2.328;2023-06-22T05:08:09;9.68;;;3.58;;
70549;SDS011;58101;48.658;2.328;2023-06-22T05:10:35;9.75;;;3.90;;
70549;SDS011;58101;48.658;2.328;2023-06-22T05:13:00;10.20;;;4.03;;
70549;SDS011;58101;48.658;2.328;2023-06-22T05:15:26;9.30;;;3.50;;
70549;SDS011;58101;48.658;2.328;2023-06-22T05:17:55;9.10;;;3.80;;
70549;SDS011;58101;48.658;2.328;2023-06-22T05:20:21;12.95;;;3.95;;
70549;SDS011;58101;48.658;2.328;2023-06-22T05:22:47;9.25;;;3.72;;
70549;SDS011;58101;48.658;2.328;2023-06-22T05:25:12;10.55;;;4.18;;
70549;SDS011;58101;48.658;2.328;2023-06-22T05:27:38;11.43;;;4.30;;
70549;SDS011;58101;48.658;2.328;2023-06-22T05:30:05;10.63;;;3.80;;
70549;SDS011;58101;48.658;2.328;2023-06-22T05:32:37;10.07;;;3.83;;
70549;SDS011;58101;48.658;2.328;2023-06-22T05:35:03;13.05;;;4.47;;
70549;SDS011;58101;48.658;2.328;2023-06-22T05:37:29;9.73;;;4.28;;
70549;SDS011;58101;48.658;2.328;2023-06-22T05:39:55;10.18;;;4.13;;
70549;SDS011;58101;48.658;2.328;2023-06-22T05:42:22;14.38;;;5.20;;
70549;SDS011;58101;48.658;2.328;2023-06-22T05:44:51;12.10;;;4.90;;
70549;SDS011;58101;48.658;2.328;2023-06-22T05:47:18;11.20;;;4.47;;
70549;SDS011;58101;48.658;2.328;2023-06-22T05:49:45;11.65;;;4.90;;
70549;SDS011;58101;48.658;2.328;2023-06-22T05:52:11;11.60;;;4.43;;
70549;SDS011;58101;48.658;2.328;2023-06-22T05:54:36;14.77;;;4.90;;
70549;SDS011;58101;48.658;2.328;2023-06-22T05:57:04;13.30;;;4.55;;
70549;SDS011;58101;48.658;2.328;2023-06-22T05:59:29;11.60;;;4.55;;
70549;SDS011;58101;48.658;2.328;2023-06-22T06:01:55;12.50;;;4.60;;
70549;SDS011;58101;48.658;2.328;2023-06-22T06:04:20;12.60;;;4.82;;
70549;SDS011;58101;48.658;2.328;2023-06-22T06:06:46;12.30;;;4.95;;
70549;SDS011;58101;48.658;2.328;2023-06-22T06:09:14;13.93;;;4.57;;
70549;SDS011;58101;48.658;2.328;2023-06-22T06:11:40;13.18;;;4.80;;
70549;SDS011;58101;48.658;2.328;2023-06-22T06:14:06;14.02;;;5.13;;
70549;SDS011;58101;48.658;2.328;2023-06-22T06:16:32;13.68;;;5.03;;
70549;SDS011;58101;48.658;2.328;2023-06-22T06:18:57;13.18;;;4.90;;
70549;SDS011;58101;48.658;2.328;2023-06-22T06:21:23;15.10;;;5.15;;
70549;SDS011;58101;48.658;2.328;2023-06-22T06:23:49;13.27;;;4.90;;
70549;SDS011;58101;48.658;2.328;2023-06-22T06:26:15;13.90;;;5.03;;
70549;SDS011;58101;48.658;2.328;2023-06-22T06:28:42;12.45;;;5.22;;
70549;SDS011;58101;48.658;2.328;2023-06-22T06:31:08;14.43;;;5.32;;
70549;SDS011;58101;48.658;2.328;2023-06-22T06:33:34;12.85;;;4.60;;
70549;SDS011;58101;48.658;2.328;2023-06-22T06:36:01;14.38;;;5.75;;
70549;SDS011;58101;48.658;2.328;2023-06-22T06:38:28;14.40;;;5.43;;
70549;SDS011;58101;48.658;2.328;2023-06-22T06:40:57;15.43;;;5.80;;
70549;SDS011;58101;48.658;2.328;2023-06-22T06:43:24;14.77;;;5.65;;
70549;SDS011;58101;48.658;2.328;2023-06-22T06:45:49;15.60;;;5.97;;
70549;SDS011;58101;48.658;2.328;2023-06-22T06:48:15;13.25;;;5.60;;
70549;SDS011;58101;48.658;2.328;2023-06-22T06:50:42;16.45;;;6.50;;
70549;SDS011;58101;48.658;2.328;2023-06-22T06:55:34;17.92;;;6.13;;
70549;SDS011;58101;48.658;2.328;2023-06-22T06:58:00;17.75;;;6.60;;
70549;SDS011;58101;48.658;2.328;2023-06-22T07:00:29;17.45;;;6.75;;
70549;SDS011;58101;48.658;2.328;2023-06-22T07:02:54;16.77;;;7.13;;
70549;SDS011;58101;48.658;2.328;2023-06-22T07:05:20;16.20;;;6.65;;
70549;SDS011;58101;48.658;2.328;2023-06-22T07:07:46;16.10;;;7.10;;
70549;SDS011;58101;48.658;2.328;2023-06-22T07:10:11;17.52;;;7.32;;
70549;SDS011;58101;48.658;2.328;2023-06-22T07:12:37;17.35;;;7.47;;
70549;SDS011;58101;48.658;2.328;2023-06-22T07:15:04;16.85;;;7.60;;
70549;SDS011;58101;48.658;2.328;2023-06-22T07:17:33;20.27;;;7.40;;
70549;SDS011;58101;48.658;2.328;2023-06-22T07:19:59;21.15;;;7.65;;
70549;SDS011;58101;48.658;2.328;2023-06-22T07:22:24;17.67;;;7.63;;
70549;SDS011;58101;48.658;2.328;2023-06-22T07:24:50;16.45;;;7.68;;
70549;SDS011;58101;48.658;2.328;2023-06-22T07:27:16;19.20;;;8.07;;
70549;SDS011;58101;48.658;2.328;2023-06-22T07:29:45;19.52;;;7.72;;
70549;SDS011;58101;48.658;2.328;2023-06-22T07:32:10;19.90;;;8.60;;
70549;SDS011;58101;48.658;2.328;2023-06-22T07:34:36;19.25;;;7.90;;
70549;SDS011;58101;48.658;2.328;2023-06-22T07:37:02;21.77;;;9.10;;
70549;SDS011;58101;48.658;2.328;2023-06-22T07:39:29;20.27;;;8.45;;
70549;SDS011;58101;48.658;2.328;2023-06-22T07:41:55;17.77;;;8.30;;
70549;SDS011;58101;48.658;2.328;2023-06-22T07:44:22;16.95;;;7.80;;
70549;SDS011;58101;48.658;2.328;2023-06-22T07:46:48;19.13;;;9.48;;
70549;SDS011;58101;48.658;2.328;2023-06-22T07:49:14;22.15;;;8.85;;
70549;SDS011;58101;48.658;2.328;2023-06-22T07:51:40;18.23;;;8.57;;
70549;SDS011;58101;48.658;2.328;2023-06-22T07:54:05;21.67;;;9.55;;
70549;SDS011;58101;48.658;2.328;2023-06-22T07:56:31;20.95;;;8.98;;
70549;SDS011;58101;48.658;2.328;2023-06-22T08:01:24;21.83;;;9.98;;
70549;SDS011;58101;48.658;2.328;2023-06-22T08:03:49;17.73;;;9.20;;
70549;SDS011;58101;48.658;2.328;2023-06-22T08:06:15;21.10;;;10.15;;
70549;SDS011;58101;48.658;2.328;2023-06-22T08:08:41;20.70;;;9.35;;
70549;SDS011;58101;48.658;2.328;2023-06-22T08:13:33;22.92;;;9.73;;
70549;SDS011;58101;48.658;2.328;2023-06-22T08:15:59;20.25;;;10.50;;
70549;SDS011;58101;48.658;2.328;2023-06-22T08:18:24;23.55;;;10.60;;
70549;SDS011;58101;48.658;2.328;2023-06-22T08:20:50;21.75;;;10.27;;
70549;SDS011;58101;48.658;2.328;2023-06-22T08:23:16;19.30;;;10.30;;
70549;SDS011;58101;48.658;2.328;2023-06-22T08:25:42;21.80;;;10.43;;
70549;SDS011;58101;48.658;2.328;2023-06-22T08:28:08;21.95;;;10.63;;
70549;SDS011;58101;48.658;2.328;2023-06-22T08:30:33;21.83;;;10.80;;
70549;SDS011;58101;48.658;2.328;2023-06-22T08:32:59;23.10;;;11.13;;
70549;SDS011;58101;48.658;2.328;2023-06-22T08:35:24;24.15;;;10.60;;
70549;SDS011;58101;48.658;2.328;2023-06-22T08:37:50;22.33;;;10.38;;
70549;SDS011;58101;48.658;2.328;2023-06-22T08:40:22;22.48;;;10.50;;
70549;SDS011;58101;48.658;2.328;2023-06-22T08:42:48;22.00;;;10.50;;
70549;SDS011;58101;48.658;2.328;2023-06-22T08:45:14;22.83;;;10.98;;
70549;SDS011;58101;48.658;2.328;2023-06-22T08:47:40;23.85;;;10.98;;
70549;SDS011;58101;48.658;2.328;2023-06-22T08:50:08;22.63;;;10.15;;
70549;SDS011;58101;48.658;2.328;2023-06-22T08:52:35;23.75;;;10.15;;
70549;SDS011;58101;48.658;2.328;2023-06-22T08:55:01;20.52;;;9.45;;
70549;SDS011;58101;48.658;2.328;2023-06-22T08:57:27;20.63;;;9.45;;
70549;SDS011;58101;48.658;2.328;2023-06-22T08:59:53;20.27;;;9.18;;
70549;SDS011;58101;48.658;2.328;2023-06-22T09:02:23;16.55;;;8.57;;
70549;SDS011;58101;48.658;2.328;2023-06-22T09:04:55;17.13;;;8.48;;
70549;SDS011;58101;48.658;2.328;2023-06-22T09:07:24;19.42;;;8.75;;
70549;SDS011;58101;48.658;2.328;2023-06-22T09:09:51;17.98;;;8.63;;
70549;SDS011;58101;48.658;2.328;2023-06-22T09:12:17;17.30;;;9.40;;
70549;SDS011;58101;48.658;2.328;2023-06-22T09:14:45;17.83;;;8.90;;
70549;SDS011;58101;48.658;2.328;2023-06-22T09:17:11;16.15;;;8.32;;
70549;SDS011;58101;48.658;2.328;2023-06-22T09:19:38;16.73;;;8.70;;
70549;SDS011;58101;48.658;2.328;2023-06-22T09:22:03;18.05;;;9.18;;
70549;SDS011;58101;48.658;2.328;2023-06-22T09:24:31;17.67;;;8.98;;
70549;SDS011;58101;48.658;2.328;2023-06-22T09:26:56;17.23;;;8.95;;
70549;SDS011;58101;48.658;2.328;2023-06-22T09:29:22;18.42;;;8.32;;
70549;SDS011;58101;48.658;2.328;2023-06-22T09:31:48;18.25;;;9.40;;
70549;SDS011;58101;48.658;2.328;2023-06-22T09:34:13;16.13;;;8.52;;
70549;SDS011;58101;48.658;2.328;2023-06-22T09:36:40;16.92;;;8.77;;
70549;SDS011;58101;48.658;2.328;2023-06-22T09:39:06;17.85;;;9.35;;
70549;SDS011;58101;48.658;2.328;2023-06-22T09:41:32;19.65;;;9.35;;
70549;SDS011;58101;48.658;2.328;2023-06-22T09:43:57;16.90;;;7.95;;
70549;SDS011;58101;48.658;2.328;2023-06-22T09:46:23;15.77;;;8.65;;
70549;SDS011;58101;48.658;2.328;2023-06-22T09:48:53;15.65;;;8.43;;
70549;SDS011;58101;48.658;2.328;2023-06-22T09:51:18;15.10;;;7.38;;
70549;SDS011;58101;48.658;2.328;2023-06-22T09:53:46;15.93;;;8.10;;
70549;SDS011;58101;48.658;2.328;2023-06-22T09:56:12;16.33;;;7.90;;
70549;SDS011;58101;48.658;2.328;2023-06-22T09:58:43;15.02;;;7.90;;
70549;SDS011;58101;48.658;2.328;2023-06-22T10:01:15;15.52;;;7.75;;
70549;SDS011;58101;48.658;2.328;2023-06-22T10:03:40;17.50;;;8.40;;
70549;SDS011;58101;48.658;2.328;2023-06-22T10:06:06;19.15;;;8.20;;
70549;SDS011;58101;48.658;2.328;2023-06-22T10:08:32;15.65;;;7.70;;
70549;SDS011;58101;48.658;2.328;2023-06-22T10:10:58;15.85;;;8.23;;
70549;SDS011;58101;48.658;2.328;2023-06-22T10:13:24;15.57;;;7.90;;
70549;SDS011;58101;48.658;2.328;2023-06-22T10:15:49;15.85;;;7.88;;
70549;SDS011;58101;48.658;2.328;2023-06-22T10:18:17;19.30;;;8.35;;
70549;SDS011;58101;48.658;2.328;2023-06-22T10:20:43;16.20;;;8.20;;
70549;SDS011;58101;48.658;2.328;2023-06-22T10:23:12;15.82;;;8.25;;
70549;SDS011;58101;48.658;2.328;2023-06-22T10:25:37;17.02;;;8.27;;
70549;SDS011;58101;48.658;2.328;2023-06-22T10:28:03;17.73;;;8.68;;
70549;SDS011;58101;48.658;2.328;2023-06-22T10:30:28;16.55;;;8.23;;
70549;SDS011;58101;48.658;2.328;2023-06-22T10:32:54;16.80;;;8.15;;
70549;SDS011;58101;48.658;2.328;2023-06-22T10:35:30;16.80;;;8.65;;
70549;SDS011;58101;48.658;2.328;2023-06-22T10:40:24;15.95;;;7.20;;
70549;SDS011;58101;48.658;2.328;2023-06-22T10:42:50;15.73;;;7.18;;
70549;SDS011;58101;48.658;2.328;2023-06-22T10:45:18;13.75;;;6.88;;
70549;SDS011;58101;48.658;2.328;2023-06-22T10:47:44;14.00;;;7.30;;
70549;SDS011;58101;48.658;2.328;2023-06-22T10:50:21;14.93;;;6.93;;
70549;SDS011;58101;48.658;2.328;2023-06-22T10:52:49;12.75;;;5.65;;
70549;SDS011;58101;48.658;2.328;2023-06-22T10:55:14;13.38;;;6.20;;
70549;SDS011;58101;48.658;2.328;2023-06-22T10:57:43;13.90;;;5.88;;
70549;SDS011;58101;48.658;2.328;2023-06-22T11:00:23;12.10;;;6.28;;
70549;SDS011;58101;48.658;2.328;2023-06-22T11:02:49;13.35;;;6.00;;
70549;SDS011;58101;48.658;2.328;2023-06-22T11:05:15;12.13;;;5.55;;
70549;SDS011;58101;48.658;2.328;2023-06-22T11:07:46;13.70;;;6.22;;
70549;SDS011;58101;48.658;2.328;2023-06-22T11:10:16;13.30;;;5.88;;
70549;SDS011;58101;48.658;2.328;2023-06-22T11:12:41;12.05;;;5.43;;
70549;SDS011;58101;48.658;2.328;2023-06-22T11:15:08;11.43;;;5.47;;
70549;SDS011;58101;48.658;2.328;2023-06-22T11:17:34;14.07;;;5.50;;
70549;SDS011;58101;48.658;2.328;2023-06-22T11:20:00;11.63;;;5.40;;
70549;SDS011;58101;48.658;2.328;2023-06-22T11:22:26;11.32;;;5.38;;
70549;SDS011;58101;48.658;2.328;2023-06-22T11:24:52;13.85;;;5.63;;
70549;SDS011;58101;48.658;2.328;2023-06-22T11:27:17;12.07;;;5.70;;
70549;SDS011;58101;48.658;2.328;2023-06-22T11:29:43;13.13;;;5.57;;
70549;SDS011;58101;48.658;2.328;2023-06-22T11:32:09;11.18;;;4.57;;
70549;SDS011;58101;48.658;2.328;2023-06-22T11:34:34;10.68;;;4.80;;
70549;SDS011;58101;48.658;2.328;2023-06-22T11:37:00;10.85;;;4.88;;
70549;SDS011;58101;48.658;2.328;2023-06-22T11:39:26;14.00;;;4.97;;
70549;SDS011;58101;48.658;2.328;2023-06-22T11:41:52;13.48;;;5.13;;
70549;SDS011;58101;48.658;2.328;2023-06-22T11:44:17;10.02;;;4.57;;
70549;SDS011;58101;48.658;2.328;2023-06-22T11:46:43;11.40;;;5.05;;
70549;SDS011;58101;48.658;2.328;2023-06-22T11:49:09;10.90;;;4.57;;
70549;SDS011;58101;48.658;2.328;2023-06-22T11:51:34;9.85;;;4.10;;
70549;SDS011;58101;48.658;2.328;2023-06-22T11:54:00;10.32;;;4.80;;
70549;SDS011;58101;48.658;2.328;2023-06-22T11:56:27;10.57;;;4.65;;
70549;SDS011;58101;48.658;2.328;2023-06-22T11:58:53;10.65;;;4.60;;
70549;SDS011;58101;48.658;2.328;2023-06-22T12:01:19;11.32;;;4.68;;
70549;SDS011;58101;48.658;2.328;2023-06-22T12:03:44;11.65;;;3.90;;
70549;SDS011;58101;48.658;2.328;2023-06-22T12:06:10;10.82;;;3.55;;
70549;SDS011;58101;48.658;2.328;2023-06-22T12:08:36;8.48;;;3.25;;
70549;SDS011;58101;48.658;2.328;2023-06-22T12:11:02;9.10;;;3.85;;
70549;SDS011;58101;48.658;2.328;2023-06-22T12:13:28;9.15;;;3.53;;
70549;SDS011;58101;48.658;2.328;2023-06-22T12:15:54;8.43;;;3.30;;
70549;SDS011;58101;48.658;2.328;2023-06-22T12:18:19;9.77;;;3.65;;
70549;SDS011;58101;48.658;2.328;2023-06-22T12:20:48;7.82;;;3.38;;
70549;SDS011;58101;48.658;2.328;2023-06-22T12:23:14;9.68;;;3.58;;
70549;SDS011;58101;48.658;2.328;2023-06-22T12:25:40;9.90;;;3.80;;
70549;SDS011;58101;48.658;2.328;2023-06-22T12:28:06;8.38;;;3.50;;
70549;SDS011;58101;48.658;2.328;2023-06-22T12:30:34;8.25;;;3.58;;
70549;SDS011;58101;48.658;2.328;2023-06-22T12:33:00;11.43;;;4.20;;
70549;SDS011;58101;48.658;2.328;2023-06-22T12:35:26;7.60;;;3.60;;
70549;SDS011;58101;48.658;2.328;2023-06-22T12:37:51;9.70;;;3.58;;
70549;SDS011;58101;48.658;2.328;2023-06-22T12:40:18;8.68;;;3.67;;
70549;SDS011;58101;48.658;2.328;2023-06-22T12:45:10;10.82;;;4.10;;
70549;SDS011;58101;48.658;2.328;2023-06-22T12:50:01;8.75;;;3.78;;
70549;SDS011;58101;48.658;2.328;2023-06-22T12:54:54;10.05;;;4.20;;
70549;SDS011;58101;48.658;2.328;2023-06-22T12:59:46;9.60;;;4.03;;
70549;SDS011;58101;48.658;2.328;2023-06-22T13:02:11;10.05;;;4.22;;
70549;SDS011;58101;48.658;2.328;2023-06-22T13:04:38;11.13;;;4.40;;
70549;SDS011;58101;48.658;2.328;2023-06-22T13:07:04;10.45;;;4.25;;
70549;SDS011;58101;48.658;2.328;2023-06-22T13:09:30;9.90;;;4.30;;
70549;SDS011;58101;48.658;2.328;2023-06-22T13:11:56;9.50;;;4.22;;
70549;SDS011;58101;48.658;2.328;2023-06-22T13:14:27;9.80;;;4.53;;
70549;SDS011;58101;48.658;2.328;2023-06-22T13:16:53;11.68;;;4.80;;
70549;SDS011;58101;48.658;2.328;2023-06-22T13:19:19;10.05;;;4.30;;
70549;SDS011;58101;48.658;2.328;2023-06-22T13:21:44;9.40;;;4.05;;
70549;SDS011;58101;48.658;2.328;2023-06-22T13:24:10;12.23;;;4.50;;
70549;SDS011;58101;48.658;2.328;2023-06-22T13:26:35;9.32;;;4.07;;
70549;SDS011;58101;48.658;2.328;2023-06-22T13:29:01;9.60;;;3.70;;
70549;SDS011;58101;48.658;2.328;2023-06-22T13:31:27;12.23;;;4.32;;
70549;SDS011;58101;48.658;2.328;2023-06-22T13:33:52;10.73;;;4.50;;
70549;SDS011;58101;48.658;2.328;2023-06-22T13:36:18;10.85;;;4.32;;
70549;SDS011;58101;48.658;2.328;2023-06-22T13:38:44;11.30;;;4.22;;
70549;SDS011;58101;48.658;2.328;2023-06-22T13:41:10;8.93;;;4.22;;
70549;SDS011;58101;48.658;2.328;2023-06-22T13:43:36;9.60;;;4.20;;
70549;SDS011;58101;48.658;2.328;2023-06-22T13:46:01;9.57;;;3.95;;
70549;SDS011;58101;48.658;2.328;2023-06-22T13:48:27;9.68;;;4.32;;
70549;SDS011;58101;48.658;2.328;2023-06-22T13:50:53;9.63;;;4.50;;
70549;SDS011;58101;48.658;2.328;2023-06-22T13:53:19;10.63;;;4.47;;
70549;SDS011;58101;48.658;2.328;2023-06-22T13:55:48;8.98;;;4.25;;
70549;SDS011;58101;48.658;2.328;2023-06-22T13:58:14;9.38;;;4.18;;
70549;SDS011;58101;48.658;2.328;2023-06-22T14:00:39;9.23;;;4.45;;
70549;SDS011;58101;48.658;2.328;2023-06-22T14:03:05;9.85;;;4.25;;
70549;SDS011;58101;48.658;2.328;2023-06-22T14:05:31;9.20;;;4.15;;
70549;SDS011;58101;48.658;2.328;2023-06-22T14:07:56;11.23;;;4.82;;
70549;SDS011;58101;48.658;2.328;2023-06-22T14:10:22;9.40;;;4.28;;
70549;SDS011;58101;48.658;2.328;2023-06-22T14:12:48;8.98;;;4.55;;
70549;SDS011;58101;48.658;2.328;2023-06-22T14:15:13;12.63;;;5.30;;
70549;SDS011;58101;48.658;2.328;2023-06-22T14:17:39;11.90;;;4.88;;
70549;SDS011;58101;48.658;2.328;2023-06-22T14:20:05;10.95;;;5.57;;
70549;SDS011;58101;48.658;2.328;2023-06-22T14:22:33;11.18;;;5.22;;
70549;SDS011;58101;48.658;2.328;2023-06-22T14:25:06;9.85;;;5.03;;
70549;SDS011;58101;48.658;2.328;2023-06-22T14:27:32;10.23;;;5.50;;
70549;SDS011;58101;48.658;2.328;2023-06-22T14:29:57;11.20;;;5.03;;
70549;SDS011;58101;48.658;2.328;2023-06-22T14:32:23;12.70;;;5.05;;
70549;SDS011;58101;48.658;2.328;2023-06-22T14:34:49;10.68;;;4.93;;
70549;SDS011;58101;48.658;2.328;2023-06-22T14:44:05;10.25;;;4.35;;
70549;SDS011;58101;48.658;2.328;2023-06-22T14:46:31;9.80;;;4.85;;
70549;SDS011;58101;48.658;2.328;2023-06-22T14:48:56;9.13;;;4.53;;
70549;SDS011;58101;48.658;2.328;2023-06-22T14:51:22;11.10;;;4.60;;
70549;SDS011;58101;48.658;2.328;2023-06-22T14:53:47;12.90;;;4.57;;
70549;SDS011;58101;48.658;2.328;2023-06-22T14:56:13;9.70;;;4.72;;
70549;SDS011;58101;48.658;2.328;2023-06-22T14:58:40;10.95;;;4.63;;
70549;SDS011;58101;48.658;2.328;2023-06-22T15:01:10;11.80;;;4.30;;
70549;SDS011;58101;48.658;2.328;2023-06-22T15:06:02;11.73;;;4.60;;
70549;SDS011;58101;48.658;2.328;2023-06-22T15:08:28;10.88;;;4.68;;
70549;SDS011;58101;48.658;2.328;2023-06-22T15:11:00;9.85;;;4.25;;
70549;SDS011;58101;48.658;2.328;2023-06-22T15:16:48;9.07;;;4.05;;
70549;SDS011;58101;48.658;2.328;2023-06-22T15:31:54;10.98;;;3.92;;
70549;SDS011;58101;48.658;2.328;2023-06-22T15:36:45;8.38;;;3.60;;
70549;SDS011;58101;48.658;2.328;2023-06-22T15:39:11;9.48;;;3.47;;
70549;SDS011;58101;48.658;2.328;2023-06-22T15:49:53;8.73;;;3.08;;
70549;SDS011;58101;48.658;2.328;2023-06-22T15:52:19;7.60;;;2.72;;